createdAt,value
2019-01-25T00:02:18.301Z,-2.33
2019-01-25T00:04:46.580Z,-2.33
2019-01-25T00:07:14.828Z,-2.30
2019-01-25T00:09:43.314Z,-2.31
2019-01-25T00:12:11.570Z,-2.33
2019-01-25T00:14:39.852Z,-2.41
2019-01-25T00:17:08.133Z,-2.44
2019-01-25T00:19:36.384Z,-2.43
2019-01-25T00:22:04.881Z,-2.37
2019-01-25T00:24:33.184Z,-2.35
2019-01-25T00:27:01.429Z,-2.44
2019-01-25T00:29:29.681Z,-2.44
2019-01-25T00:31:57.985Z,-2.43
2019-01-25T00:34:26.279Z,-2.41
2019-01-25T00:36:54.708Z,-2.39
2019-01-25T00:39:23.057Z,-2.41
2019-01-25T00:41:51.361Z,-2.34
2019-01-25T00:44:19.608Z,-2.31
2019-01-25T00:46:47.857Z,-2.34
2019-01-25T00:49:16.137Z,-2.28
2019-01-25T00:51:44.400Z,-2.29
2019-01-25T00:54:12.826Z,-2.25
2019-01-25T00:56:41.121Z,-2.22
2019-01-25T00:59:09.364Z,-2.33
2019-01-25T01:01:37.679Z,-2.29
2019-01-25T01:04:05.930Z,-2.26
2019-01-25T01:06:34.256Z,-2.28
2019-01-25T01:09:02.542Z,-2.23
2019-01-25T01:11:30.786Z,-2.24
2019-01-25T01:13:59.033Z,-2.21
2019-01-25T01:16:27.330Z,-2.17
2019-01-25T01:18:55.580Z,-2.13
2019-01-25T01:21:23.854Z,-2.11
2019-01-25T01:23:52.159Z,-2.18
2019-01-25T01:26:20.446Z,-2.17
2019-01-25T01:28:48.691Z,-2.19
2019-01-25T01:31:17.010Z,-2.19
2019-01-25T01:33:45.261Z,-2.21
2019-01-25T01:36:13.550Z,-2.24
2019-01-25T01:38:41.866Z,-2.16
2019-01-25T01:41:10.140Z,-2.24
2019-01-25T01:43:38.413Z,-2.24
2019-01-25T01:46:06.716Z,-2.24
2019-01-25T01:48:34.969Z,-2.21
2019-01-25T01:51:04.118Z,-2.22
2019-01-25T01:53:32.368Z,-2.25
2019-01-25T01:56:00.688Z,-2.33
2019-01-25T01:58:28.956Z,-2.38
2019-01-25T02:00:57.223Z,-2.39
2019-01-25T02:03:25.500Z,-2.38
2019-01-25T02:05:53.748Z,-2.43
2019-01-25T02:08:22.058Z,-2.48
2019-01-25T02:10:50.321Z,-2.54
2019-01-25T02:13:19.212Z,-2.52
2019-01-25T02:15:47.506Z,-2.47
2019-01-25T02:18:15.754Z,-2.62
2019-01-25T02:20:44.047Z,-2.59
2019-01-25T02:23:12.297Z,-2.57
2019-01-25T02:25:40.598Z,-2.53
2019-01-25T02:28:08.854Z,-2.46
2019-01-25T02:30:37.161Z,-2.36
2019-01-25T02:33:05.475Z,-2.30
2019-01-25T02:35:33.732Z,-2.26
2019-01-25T02:38:01.982Z,-2.27
2019-01-25T02:40:38.395Z,-2.41
2019-01-25T02:43:00.244Z,-2.45
2019-01-25T02:45:28.549Z,-2.45
2019-01-25T02:47:56.798Z,-2.38
2019-01-25T02:50:25.098Z,-2.28
2019-01-25T02:52:53.357Z,-2.38
2019-01-25T02:55:21.652Z,-2.38
2019-01-25T02:57:49.936Z,-2.39
2019-01-25T03:00:25.312Z,-2.41
2019-01-25T03:02:53.910Z,-2.39
2019-01-25T03:05:23.026Z,-2.36
2019-01-25T03:07:51.430Z,-2.33
2019-01-25T03:10:28.248Z,-2.37
2019-01-25T03:12:51.125Z,-2.35
2019-01-25T03:15:21.564Z,-2.26
2019-01-25T03:17:49.823Z,-2.22
2019-01-25T03:20:18.558Z,-2.19
2019-01-25T03:22:46.821Z,-2.16
2019-01-25T03:25:19.881Z,-2.17
2019-01-25T03:27:48.151Z,-2.19
2019-01-25T03:30:21.245Z,-2.18
2019-01-25T03:32:49.566Z,-2.12
2019-01-25T03:35:19.635Z,-2.11
2019-01-25T03:37:47.913Z,-2.14
2019-01-25T03:40:18.799Z,-2.17
2019-01-25T03:42:47.107Z,-2.15
2019-01-25T03:45:15.785Z,-2.13
2019-01-25T03:47:44.037Z,-2.15
2019-01-25T03:50:17.236Z,-2.15
2019-01-25T03:52:45.483Z,-2.18
2019-01-25T03:55:14.679Z,-2.16
2019-01-25T03:57:42.974Z,-2.09
2019-01-25T04:00:14.075Z,-2.19
2019-01-25T04:02:42.361Z,-2.17
2019-01-25T04:05:12.750Z,-2.16
2019-01-25T04:07:41.051Z,-2.09
2019-01-25T04:10:14.510Z,-2.14
2019-01-25T04:12:42.816Z,-2.09
2019-01-25T04:15:14.068Z,-2.02
2019-01-25T04:17:42.356Z,-2.02
2019-01-25T04:20:13.550Z,-2.11
2019-01-25T04:22:41.845Z,-2.06
2019-01-25T04:25:15.672Z,-2.07
2019-01-25T04:27:43.978Z,-2.00
2019-01-25T04:30:29.415Z,-1.96
2019-01-25T04:32:57.817Z,-2.03
2019-01-25T04:35:26.114Z,-2.00
2019-01-25T04:37:54.393Z,-2.00
2019-01-25T04:40:22.690Z,-1.94
2019-01-25T04:42:50.987Z,-1.94
2019-01-25T04:45:20.927Z,-1.94
2019-01-25T04:47:49.184Z,-1.87
2019-01-25T04:50:22.888Z,-1.95
2019-01-25T04:52:51.182Z,-1.93
2019-01-25T04:55:21.282Z,-1.89
2019-01-25T04:57:49.578Z,-1.84
2019-01-25T05:00:20.071Z,-1.80
2019-01-25T05:02:58.970Z,-1.78
2019-01-25T05:05:27.732Z,-1.82
2019-01-25T05:08:09.883Z,-1.84
2019-01-25T05:10:38.178Z,-1.79
2019-01-25T05:13:06.511Z,-1.74
2019-01-25T05:15:34.882Z,-1.74
2019-01-25T05:18:04.594Z,-1.78
2019-01-25T05:20:32.844Z,-1.81
2019-01-25T05:23:06.411Z,-1.71
2019-01-25T05:25:34.689Z,-1.75
2019-01-25T05:28:06.200Z,-1.76
2019-01-25T05:30:34.513Z,-1.75
2019-01-25T05:33:02.784Z,-1.75
2019-01-25T05:35:33.876Z,-1.75
2019-01-25T05:38:02.172Z,-1.78
2019-01-25T05:40:30.420Z,-1.83
2019-01-25T05:42:58.729Z,-1.80
2019-01-25T05:45:27.028Z,-1.81
2019-01-25T05:47:55.277Z,-1.80
2019-01-25T05:50:23.530Z,-1.78
2019-01-25T05:52:51.837Z,-1.77
2019-01-25T05:55:21.612Z,-1.77
2019-01-25T05:57:49.908Z,-1.80
2019-01-25T06:00:19.803Z,-1.77
2019-01-25T06:02:48.106Z,-1.76
2019-01-25T06:05:16.362Z,-1.74
2019-01-25T06:07:44.658Z,-1.68
2019-01-25T06:10:13.390Z,-1.64
2019-01-25T06:12:41.636Z,-1.64
2019-01-25T06:15:12.058Z,-1.64
2019-01-25T06:17:40.330Z,-1.65
2019-01-25T06:20:10.354Z,-1.82
2019-01-25T06:22:38.613Z,-1.81
2019-01-25T06:25:07.915Z,-1.78
2019-01-25T06:27:39.858Z,-1.74
2019-01-25T06:30:16.917Z,-1.79
2019-01-25T06:32:45.261Z,-1.78
2019-01-25T06:35:13.660Z,-1.78
2019-01-25T06:37:41.919Z,-1.82
2019-01-25T06:40:12.741Z,-1.80
2019-01-25T06:42:41.928Z,-1.89
2019-01-25T06:45:11.841Z,-1.94
2019-01-25T06:47:40.093Z,-1.91
2019-01-25T06:50:10.545Z,-1.96
2019-01-25T06:52:38.801Z,-1.90
2019-01-25T06:55:08.646Z,-1.81
2019-01-25T06:57:50.301Z,-1.83
2019-01-25T07:00:32.466Z,-1.78
2019-01-25T07:03:00.720Z,-1.71
2019-01-25T07:05:29.014Z,-1.71
2019-01-25T07:07:57.266Z,-1.59
2019-01-25T07:10:25.595Z,-1.59
2019-01-25T07:12:53.906Z,-1.58
2019-01-25T07:15:23.964Z,-1.52
2019-01-25T07:17:52.379Z,-1.50
2019-01-25T07:20:20.649Z,-1.45
2019-01-25T07:22:48.946Z,-1.53
2019-01-25T07:25:17.244Z,-1.53
2019-01-25T07:27:45.534Z,-1.59
2019-01-25T07:30:15.498Z,-1.50
2019-01-25T07:32:43.766Z,-1.49
2019-01-25T07:35:12.073Z,-1.47
2019-01-25T07:37:40.328Z,-1.45
2019-01-25T07:40:12.221Z,-1.50
2019-01-25T07:42:40.494Z,-1.50
2019-01-25T07:45:13.597Z,-1.50
2019-01-25T07:47:41.833Z,-1.59
2019-01-25T07:50:11.528Z,-1.56
2019-01-25T07:52:39.832Z,-1.50
2019-01-25T07:55:12.360Z,-1.47
2019-01-25T07:57:40.692Z,-1.47
2019-01-25T08:00:18.186Z,-1.45
2019-01-25T08:02:46.459Z,-1.48
2019-01-25T08:05:14.873Z,-1.45
2019-01-25T08:07:43.102Z,-1.51
2019-01-25T08:10:19.577Z,-1.58
2019-01-25T08:12:48.013Z,-1.48
2019-01-25T08:15:19.673Z,-1.50
2019-01-25T08:17:47.995Z,-1.39
2019-01-25T08:20:16.342Z,-1.31
2019-01-25T08:22:44.588Z,-1.32
2019-01-25T08:25:12.899Z,-1.29
2019-01-25T08:52:32.060Z,7.29
2019-01-25T08:55:00.549Z,5.02
2019-01-25T08:57:29.004Z,2.46
2019-01-25T08:59:57.456Z,1.17
2019-01-25T09:02:25.708Z,0.77
2019-01-25T09:04:54.008Z,-0.22
2019-01-25T09:07:22.303Z,-1.07
2019-01-25T09:09:50.589Z,-1.40
2019-01-25T09:12:23.258Z,-1.59
2019-01-25T09:14:48.885Z,-1.84
2019-01-25T09:17:17.179Z,-1.75
2019-01-25T09:19:45.473Z,-1.76
2019-01-25T09:25:08.115Z,5.04
2019-01-25T09:27:36.370Z,2.08
2019-01-25T09:30:07.910Z,0.54
2019-01-25T09:32:36.208Z,0.17
2019-01-25T09:35:06.839Z,0.00
2019-01-25T09:37:35.222Z,-0.10
2019-01-25T09:40:06.955Z,-0.16
2019-01-25T09:42:35.332Z,-0.17
2019-01-25T09:45:06.726Z,-0.11
2019-01-25T09:47:35.152Z,-0.12
2019-01-25T09:50:09.907Z,-0.14
2019-01-25T09:52:38.171Z,-0.15
2019-01-25T09:55:09.741Z,-0.17
2019-01-25T09:57:38.031Z,-0.11
2019-01-25T10:00:30.794Z,-0.02
2019-01-25T10:02:59.086Z,0.12
2019-01-25T10:05:27.334Z,0.18
2019-01-25T10:07:55.663Z,0.23
2019-01-25T10:10:23.960Z,0.32
2019-01-25T10:12:52.263Z,0.41
2019-01-25T10:15:26.246Z,0.43
2019-01-25T10:17:54.708Z,0.50
2019-01-25T10:20:23.067Z,0.46
2019-01-25T10:22:51.363Z,0.51
2019-01-25T10:25:19.777Z,0.59
2019-01-25T10:27:48.063Z,0.63
2019-01-25T10:30:22.200Z,0.56
2019-01-25T10:32:50.511Z,0.67
2019-01-25T10:35:18.826Z,0.56
2019-01-25T10:37:47.191Z,0.59
2019-01-25T10:40:17.388Z,0.53
2019-01-25T10:42:53.005Z,0.67
2019-01-25T10:45:21.923Z,0.73
2019-01-25T10:47:50.412Z,0.82
2019-01-25T10:50:18.659Z,0.77
2019-01-25T10:52:46.970Z,0.83
2019-01-25T10:55:15.266Z,0.82
2019-01-25T10:57:43.666Z,0.75
2019-01-25T11:00:14.767Z,0.41
2019-01-25T11:02:43.072Z,0.19
2019-01-25T11:05:14.354Z,0.03
2019-01-25T11:07:42.653Z,-0.18
2019-01-25T11:10:10.962Z,-0.46
2019-01-25T11:12:39.244Z,-0.44
2019-01-25T11:15:10.822Z,-0.50
2019-01-25T11:17:39.139Z,-0.51
2019-01-25T11:20:13.249Z,-0.60
2019-01-25T11:22:41.524Z,-0.62
2019-01-25T11:25:15.961Z,-0.83
2019-01-25T11:27:44.253Z,-0.96
2019-01-25T11:30:15.476Z,-1.17
2019-01-25T11:32:43.787Z,-1.05
2019-01-25T11:35:12.146Z,-1.12
2019-01-25T11:37:41.991Z,-1.20
2019-01-25T11:40:13.740Z,-1.19
2019-01-25T11:42:42.017Z,-1.27
2019-01-25T11:45:11.948Z,-1.25
2019-01-25T11:47:40.233Z,-1.08
2019-01-25T11:50:14.379Z,-0.77
2019-01-25T11:52:42.649Z,-0.33
2019-01-25T11:55:11.744Z,-0.10
2019-01-25T11:57:40.033Z,0.01
2019-01-25T12:00:26.152Z,0.06
2019-01-25T12:02:54.444Z,-0.08
2019-01-25T12:05:24.132Z,0.05
2019-01-25T12:07:52.991Z,0.19
2019-01-25T12:10:26.736Z,-0.03
2019-01-25T12:12:55.011Z,-0.12
2019-01-25T12:15:23.279Z,-0.42
2019-01-25T12:17:51.569Z,-0.43
2019-01-25T12:20:21.966Z,-0.40
2019-01-25T12:22:50.272Z,-0.47
2019-01-25T12:25:18.531Z,-0.56
2019-01-25T12:27:46.824Z,-0.62
2019-01-25T12:30:29.780Z,-0.57
2019-01-25T12:32:58.151Z,-0.48
2019-01-25T12:35:28.681Z,-0.32
2019-01-25T12:37:56.993Z,-0.37
2019-01-25T12:40:25.414Z,-0.30
2019-01-25T12:42:53.753Z,-0.26
2019-01-25T12:45:24.416Z,-0.17
2019-01-25T12:47:52.733Z,-0.37
2019-01-25T12:50:27.131Z,-0.49
2019-01-25T12:52:55.526Z,-0.55
2019-01-25T12:55:23.947Z,-0.69
2019-01-25T12:57:52.337Z,-0.68
2019-01-25T13:00:23.991Z,-0.49
2019-01-25T13:02:52.685Z,-0.39
2019-01-25T13:05:21.523Z,-0.31
2019-01-25T13:07:49.815Z,-0.25
2019-01-25T13:10:23.414Z,-0.35
2019-01-25T13:12:51.671Z,-0.36
2019-01-25T13:15:20.531Z,-0.51
2019-01-25T13:17:48.793Z,-0.56
2019-01-25T13:20:26.182Z,-0.49
2019-01-25T13:22:54.731Z,-0.42
2019-01-25T13:25:23.034Z,-0.44
2019-01-25T13:27:56.176Z,-0.41
2019-01-25T13:30:28.497Z,-0.49
2019-01-25T13:32:57.219Z,-0.47
2019-01-25T13:35:25.554Z,-0.43
2019-01-25T13:37:54.016Z,-0.45
2019-01-25T13:40:26.969Z,-0.52
2019-01-25T13:42:55.311Z,-0.66
2019-01-25T13:45:23.734Z,-0.68
2019-01-25T13:47:52.010Z,-0.65
2019-01-25T13:50:25.839Z,-0.66
2019-01-25T13:52:54.233Z,-0.72
2019-01-25T13:55:22.520Z,-0.68
2019-01-25T13:57:50.845Z,-0.75
2019-01-25T14:00:27.295Z,-0.86
2019-01-25T14:02:55.721Z,-1.03
2019-01-25T14:05:24.102Z,-0.95
2019-01-25T14:07:52.429Z,-0.91
2019-01-25T14:10:29.129Z,-0.86
2019-01-25T14:12:57.499Z,-0.90
2019-01-25T14:15:26.217Z,-0.90
2019-01-25T14:17:54.520Z,-0.86
2019-01-25T14:20:27.881Z,-0.89
2019-01-25T14:22:56.143Z,-0.95
2019-01-25T14:25:24.462Z,-1.09
2019-01-25T14:27:53.283Z,-1.19
2019-01-25T14:30:24.304Z,-1.22
2019-01-25T14:32:52.613Z,-1.15
2019-01-25T14:35:20.915Z,-1.14
2019-01-25T14:37:49.362Z,-1.12
2019-01-25T14:40:17.612Z,-1.17
2019-01-25T14:42:45.860Z,-1.09
2019-01-25T14:45:16.412Z,-1.00
2019-01-25T14:47:44.975Z,-0.99
2019-01-25T14:50:16.209Z,-1.05
2019-01-25T14:52:44.457Z,-1.05
2019-01-25T14:55:12.758Z,-1.25
2019-01-25T14:57:41.030Z,-1.35
2019-01-25T15:00:10.106Z,-1.40
2019-01-25T15:02:40.079Z,-1.43
2019-01-25T15:05:14.901Z,-1.47
2019-01-25T15:07:43.155Z,-1.46
2019-01-25T15:10:14.590Z,-1.44
2019-01-25T15:12:42.874Z,-1.48
2019-01-25T15:15:12.970Z,-1.48
2019-01-25T15:17:41.245Z,-1.50
2019-01-25T15:20:12.597Z,-1.56
2019-01-25T15:22:40.895Z,-1.61
2019-01-25T15:25:09.207Z,-1.64
2019-01-25T15:27:37.634Z,-1.67
2019-01-25T15:30:09.141Z,-1.70
2019-01-25T15:32:37.418Z,-1.76
2019-01-25T15:35:08.636Z,-1.83
2019-01-25T15:37:36.898Z,-1.87
2019-01-25T15:40:08.837Z,-1.88
2019-01-25T15:42:37.090Z,-1.93
2019-01-25T15:45:10.803Z,-1.92
2019-01-25T15:47:39.054Z,-1.95
2019-01-25T15:50:13.533Z,-1.93
2019-01-25T15:52:41.829Z,-1.93
2019-01-25T15:55:10.497Z,-1.90
2019-01-25T15:57:38.780Z,-1.86
2019-01-25T16:00:12.306Z,-1.81
2019-01-25T16:02:40.601Z,-1.80
2019-01-25T16:05:11.093Z,-1.79
2019-01-25T16:07:39.434Z,-1.80
2019-01-25T16:10:10.982Z,-1.81
2019-01-25T16:12:39.238Z,-1.75
2019-01-25T16:15:10.813Z,-1.71
2019-01-25T16:17:39.057Z,-1.66
2019-01-25T16:20:10.459Z,-1.57
2019-01-25T16:22:39.058Z,-1.53
2019-01-25T16:25:10.674Z,-1.47
2019-01-25T16:27:38.930Z,-1.44
2019-01-25T16:30:10.481Z,-1.38
2019-01-25T16:32:38.858Z,-1.36
2019-01-25T16:35:08.751Z,-1.31
2019-01-25T16:37:37.053Z,-1.34
2019-01-25T16:40:17.050Z,-1.28
2019-01-25T16:42:45.325Z,-1.27
2019-01-25T16:45:19.258Z,-1.25
2019-01-25T16:47:47.713Z,-1.22
2019-01-25T16:50:23.413Z,-1.17
2019-01-25T16:52:46.519Z,-1.13
2019-01-25T16:55:15.824Z,-1.13
2019-01-25T16:57:44.135Z,-1.12
2019-01-25T17:00:15.648Z,-1.09
2019-01-25T17:02:43.901Z,-1.02
2019-01-25T17:05:12.221Z,-0.98
2019-01-25T17:07:40.487Z,-0.91
2019-01-25T17:10:11.399Z,-0.85
2019-01-25T17:12:39.725Z,-0.82
2019-01-25T17:15:10.894Z,-0.75
2019-01-25T17:17:39.413Z,-0.74
2019-01-25T17:20:21.050Z,-0.70
2019-01-25T17:22:46.174Z,-0.66
2019-01-25T17:25:15.034Z,-0.66
2019-01-25T17:27:43.339Z,-0.65
2019-01-25T17:30:14.855Z,-0.61
2019-01-25T17:32:43.104Z,-0.60
2019-01-25T17:35:11.414Z,-0.60
2019-01-25T17:37:39.660Z,-0.60
2019-01-25T17:40:14.048Z,-0.60
2019-01-25T17:42:42.358Z,-0.61
2019-01-25T17:45:11.144Z,-0.65
2019-01-25T17:47:39.416Z,-0.64
2019-01-25T17:50:10.666Z,-0.62
2019-01-25T17:52:38.970Z,-0.60
2019-01-25T17:55:09.769Z,-0.56
2019-01-25T17:57:38.693Z,-0.55
2019-01-25T18:00:20.151Z,-0.51
2019-01-25T18:02:48.445Z,-0.47
2019-01-25T18:05:16.700Z,-0.41
2019-01-25T18:07:45.010Z,-0.37
2019-01-25T18:10:15.952Z,-0.35
2019-01-25T18:12:44.201Z,-0.32
2019-01-25T18:15:14.793Z,-0.35
2019-01-25T18:17:43.224Z,-0.34
2019-01-25T18:20:14.581Z,-0.32
2019-01-25T18:22:42.876Z,-0.31
2019-01-25T18:25:14.221Z,-0.29
2019-01-25T18:27:46.268Z,-0.25
2019-01-25T18:30:17.789Z,-0.25
2019-01-25T18:32:46.108Z,-0.26
2019-01-25T18:35:14.359Z,-0.27
2019-01-25T18:37:42.685Z,-0.30
2019-01-25T18:40:11.872Z,-0.27
2019-01-25T18:42:40.129Z,-0.29
2019-01-25T18:45:09.776Z,-0.28
2019-01-25T18:47:38.039Z,-0.31
2019-01-25T18:50:09.605Z,-0.36
2019-01-25T18:52:37.907Z,-0.35
2019-01-25T18:55:12.222Z,-0.34
2019-01-25T18:57:40.515Z,-0.35
2019-01-25T19:00:12.370Z,-0.34
2019-01-25T19:02:40.808Z,-0.37
2019-01-25T19:05:09.937Z,-0.39
2019-01-25T19:07:38.258Z,-0.40
2019-01-25T19:10:12.531Z,-0.37
2019-01-25T19:12:40.833Z,-0.36
2019-01-25T19:15:15.063Z,-0.35
2019-01-25T19:17:43.315Z,-0.31
2019-01-25T19:20:14.661Z,-0.32
2019-01-25T19:22:42.953Z,-0.31
2019-01-25T19:25:11.847Z,-0.30
2019-01-25T19:27:40.171Z,-0.30
2019-01-25T19:30:14.810Z,-0.28
2019-01-25T19:32:43.094Z,-0.31
2019-01-25T19:35:12.782Z,-0.29
2019-01-25T19:37:41.091Z,-0.27
2019-01-25T19:40:12.776Z,-0.25
2019-01-25T19:42:41.631Z,-0.26
2019-01-25T19:45:12.078Z,-0.25
2019-01-25T19:47:40.467Z,-0.26
2019-01-25T19:50:11.989Z,-0.26
2019-01-25T19:52:40.606Z,-0.24
2019-01-25T19:55:12.224Z,-0.21
2019-01-25T19:57:40.498Z,-0.19
2019-01-25T20:00:12.053Z,-0.19
2019-01-25T20:02:40.376Z,-0.16
2019-01-25T20:05:12.041Z,-0.14
2019-01-25T20:07:41.314Z,-0.14
2019-01-25T20:10:11.713Z,-0.09
2019-01-25T20:12:40.024Z,-0.09
2019-01-25T20:15:19.365Z,-0.13
2019-01-25T20:17:43.492Z,-0.18
2019-01-25T20:20:17.778Z,-0.17
2019-01-25T20:22:46.053Z,-0.20
2019-01-25T20:25:14.563Z,-0.25
2019-01-25T20:27:42.907Z,-0.29
2019-01-25T20:30:23.387Z,-0.37
2019-01-25T20:32:51.876Z,-0.51
2019-01-25T20:35:25.473Z,-0.49
2019-01-25T20:37:53.873Z,-0.52
2019-01-25T20:40:22.250Z,-0.54
2019-01-25T20:42:50.594Z,-0.55
2019-01-25T20:45:27.255Z,-0.58
2019-01-25T20:47:54.763Z,-0.61
2019-01-25T20:50:25.557Z,-0.63
2019-01-25T20:52:53.986Z,-0.61
2019-01-25T20:55:22.241Z,-0.66
2019-01-25T20:57:50.606Z,-0.67
2019-01-25T21:00:30.724Z,-0.65
2019-01-25T21:02:59.009Z,-0.66
2019-01-25T21:05:27.549Z,-0.63
2019-01-25T21:07:55.918Z,-0.65
2019-01-25T21:10:25.645Z,-0.61
2019-01-25T21:12:54.184Z,-0.58
2019-01-25T21:15:34.771Z,-0.53
2019-01-25T21:17:57.359Z,-0.48
2019-01-25T21:20:37.096Z,-0.43
2019-01-25T21:23:05.643Z,-0.40
2019-01-25T21:25:33.859Z,-0.40
2019-01-25T21:28:02.284Z,-0.43
2019-01-25T21:30:32.947Z,-0.41
2019-01-25T21:33:05.758Z,-0.42
2019-01-25T21:35:33.974Z,-0.39
2019-01-25T21:38:02.240Z,-0.36
2019-01-25T21:40:32.373Z,-0.37
2019-01-25T21:43:01.095Z,-0.34
2019-01-25T21:45:32.052Z,-0.32
2019-01-25T21:48:00.997Z,-0.31
2019-01-25T21:50:35.282Z,-0.33
2019-01-25T21:53:04.552Z,-0.31
2019-01-25T21:55:33.465Z,-0.26
2019-01-25T21:58:05.248Z,-0.22
2019-01-25T22:00:34.787Z,-0.20
2019-01-25T22:03:03.260Z,-0.15
2019-01-25T22:05:31.578Z,-0.09
2019-01-25T22:07:59.856Z,-0.02
2019-01-25T22:10:30.985Z,0.06
2019-01-25T22:12:59.228Z,0.13
2019-01-25T22:15:27.908Z,0.18
2019-01-25T22:17:56.193Z,0.25
2019-01-25T22:20:26.539Z,0.32
2019-01-25T22:22:55.103Z,0.38
2019-01-25T22:25:23.620Z,0.42
2019-01-25T22:27:53.013Z,0.54
2019-01-25T22:30:27.035Z,0.60
2019-01-25T22:32:55.348Z,0.65
2019-01-25T22:35:23.706Z,0.76
2019-01-25T22:37:53.282Z,0.86
2019-01-25T22:40:24.598Z,0.94
2019-01-25T22:42:52.888Z,0.99
2019-01-25T22:45:23.401Z,1.05
2019-01-25T22:47:51.639Z,1.14
2019-01-25T22:50:23.196Z,1.20
2019-01-25T22:52:51.449Z,1.28
2019-01-25T22:55:21.080Z,1.36
2019-01-25T22:57:49.776Z,1.40
2019-01-25T23:00:48.492Z,1.44
2019-01-25T23:03:20.243Z,1.47
2019-01-25T23:06:24.889Z,1.51
2019-01-25T23:08:53.157Z,1.52
2019-01-25T23:11:21.402Z,1.56
2019-01-25T23:13:49.822Z,1.56
2019-01-25T23:16:19.572Z,1.56
2019-01-25T23:18:47.855Z,1.51
2019-01-25T23:21:16.100Z,1.46
2019-01-25T23:23:44.405Z,1.40
2019-01-25T23:26:12.718Z,1.37
2019-01-25T23:28:40.989Z,1.37
2019-01-25T23:31:09.335Z,1.36
2019-01-25T23:33:37.649Z,1.36
2019-01-25T23:36:05.925Z,1.38
2019-01-25T23:38:34.162Z,1.34
2019-01-25T23:41:02.453Z,1.32
2019-01-25T23:43:30.716Z,1.30
2019-01-25T23:46:00.930Z,1.29
2019-01-25T23:48:29.149Z,1.32
2019-01-25T23:50:57.426Z,1.35
2019-01-25T23:53:25.723Z,1.34
2019-01-25T23:55:53.955Z,1.32
2019-01-25T23:58:22.189Z,1.31
